createdAt,value
2023-05-09T00:00:20.978Z,26.58
2023-05-09T00:00:51.075Z,26.58
2023-05-09T00:01:21.157Z,26.60
2023-05-09T00:01:51.291Z,26.58
2023-05-09T00:02:21.299Z,26.60
2023-05-09T00:02:51.357Z,26.58
2023-05-09T00:03:21.411Z,26.57
2023-05-09T00:03:51.500Z,26.57
2023-05-09T00:04:21.467Z,26.61
2023-05-09T00:04:51.510Z,26.61
2023-05-09T00:05:21.498Z,26.60
2023-05-09T00:05:51.594Z,26.60
2023-05-09T00:06:21.677Z,26.58
2023-05-09T00:06:51.748Z,26.58
2023-05-09T00:07:21.850Z,26.58
2023-05-09T00:07:51.933Z,26.58
2023-05-09T00:08:22.016Z,26.58
2023-05-09T00:08:52.099Z,26.58
2023-05-09T00:09:22.197Z,26.58
2023-05-09T00:09:52.293Z,26.58
2023-05-09T00:10:22.517Z,26.60
2023-05-09T00:10:52.473Z,26.57
2023-05-09T00:11:22.545Z,26.57
2023-05-09T00:11:52.579Z,26.58
2023-05-09T00:12:22.657Z,26.58
2023-05-09T00:12:52.688Z,26.57
2023-05-09T00:13:22.877Z,26.56
2023-05-09T00:13:52.790Z,26.57
2023-05-09T00:14:22.841Z,26.57
2023-05-09T00:14:52.886Z,26.56
2023-05-09T00:15:22.925Z,26.58
2023-05-09T00:15:52.974Z,26.57
2023-05-09T00:16:23.058Z,26.57
2023-05-09T00:16:53.220Z,26.56
2023-05-09T00:17:23.218Z,26.56
2023-05-09T00:17:53.301Z,26.57
2023-05-09T00:18:23.355Z,26.58
2023-05-09T00:18:53.415Z,26.56
2023-05-09T00:19:23.456Z,26.56
2023-05-09T00:19:53.502Z,26.54
2023-05-09T00:20:23.547Z,26.57
2023-05-09T00:20:53.604Z,26.57
2023-05-09T00:21:23.654Z,26.54
2023-05-09T00:21:53.729Z,26.57
2023-05-09T00:22:23.849Z,26.56
2023-05-09T00:22:53.910Z,26.54
2023-05-09T00:23:24.019Z,26.56
2023-05-09T00:23:54.106Z,26.54
2023-05-09T00:24:24.191Z,26.56
2023-05-09T00:24:54.285Z,26.56
2023-05-09T00:25:24.373Z,26.54
2023-05-09T00:25:54.642Z,26.57
2023-05-09T00:26:24.585Z,26.56
2023-05-09T00:26:54.680Z,26.54
2023-05-09T00:27:24.779Z,26.54
2023-05-09T00:27:54.848Z,26.54
2023-05-09T00:28:24.928Z,26.54
2023-05-09T00:28:55.022Z,26.56
2023-05-09T00:29:25.125Z,26.54
2023-05-09T00:29:55.196Z,26.57
2023-05-09T00:30:25.277Z,26.56
2023-05-09T00:30:55.375Z,26.54
2023-05-09T00:31:25.480Z,26.56
2023-05-09T00:31:55.549Z,26.56
2023-05-09T00:32:25.683Z,26.54
2023-05-09T00:32:55.809Z,26.53
2023-05-09T00:33:25.708Z,26.54
2023-05-09T00:33:55.794Z,26.54
2023-05-09T00:34:25.876Z,26.51
2023-05-09T00:34:55.949Z,26.56
2023-05-09T00:35:26.041Z,26.51
2023-05-09T00:35:56.128Z,26.53
2023-05-09T00:36:26.214Z,26.54
2023-05-09T00:36:56.291Z,26.54
2023-05-09T00:37:26.393Z,26.51
2023-05-09T00:37:56.480Z,26.54
2023-05-09T00:38:26.587Z,26.54
2023-05-09T00:38:56.647Z,26.51
2023-05-09T00:39:26.731Z,26.51
2023-05-09T00:39:56.809Z,26.53
2023-05-09T00:40:26.902Z,26.53
2023-05-09T00:40:57.109Z,26.51
2023-05-09T00:41:27.056Z,26.51
2023-05-09T00:41:57.144Z,26.53
2023-05-09T00:42:27.458Z,26.56
2023-05-09T00:42:57.318Z,26.53
2023-05-09T00:43:57.453Z,26.54
2023-05-09T00:44:27.538Z,26.54
2023-05-09T00:44:57.628Z,26.53
2023-05-09T00:45:27.707Z,26.54
2023-05-09T00:45:57.835Z,26.54
2023-05-09T00:46:27.929Z,26.53
2023-05-09T00:46:58.025Z,26.51
2023-05-09T00:47:28.110Z,26.54
2023-05-09T00:47:58.130Z,26.54
2023-05-09T00:48:28.129Z,26.54
2023-05-09T00:48:58.212Z,26.53
2023-05-09T00:49:28.288Z,26.53
2023-05-09T00:49:58.428Z,26.51
2023-05-09T00:50:28.384Z,26.48
2023-05-09T00:50:58.467Z,26.50
2023-05-09T00:51:28.565Z,26.50
2023-05-09T00:51:58.665Z,26.51
2023-05-09T00:52:28.742Z,26.50
2023-05-09T00:52:58.860Z,26.51
2023-05-09T00:53:28.930Z,26.50
2023-05-09T00:53:59.019Z,26.51
2023-05-09T00:54:29.092Z,26.51
2023-05-09T00:54:59.192Z,26.54
2023-05-09T00:55:29.271Z,26.48
2023-05-09T00:55:59.494Z,26.48
2023-05-09T00:56:29.438Z,26.51
2023-05-09T00:56:59.523Z,26.50
2023-05-09T00:57:29.606Z,26.50
2023-05-09T00:57:59.708Z,26.50
2023-05-09T00:58:29.782Z,26.48
2023-05-09T00:58:59.866Z,26.48
2023-05-09T00:59:29.956Z,26.50
2023-05-09T01:00:00.046Z,26.50
2023-05-09T01:00:30.122Z,26.48
2023-05-09T01:01:00.263Z,26.51
2023-05-09T01:01:30.252Z,26.47
2023-05-09T01:02:00.257Z,26.50
2023-05-09T01:02:30.427Z,26.51
2023-05-09T01:03:00.500Z,26.50
2023-05-09T01:03:30.598Z,26.48
2023-05-09T01:04:00.593Z,26.47
2023-05-09T01:04:30.677Z,26.50
2023-05-09T01:05:00.769Z,26.48
2023-05-09T01:05:30.908Z,26.48
2023-05-09T01:06:00.879Z,26.48
2023-05-09T01:06:30.989Z,26.48
2023-05-09T01:07:01.054Z,26.48
2023-05-09T01:07:31.149Z,26.48
2023-05-09T01:08:01.231Z,26.48
2023-05-09T01:08:31.328Z,26.47
2023-05-09T01:09:01.405Z,26.48
2023-05-09T01:09:31.484Z,26.50
2023-05-09T01:10:01.584Z,26.48
2023-05-09T01:10:31.678Z,26.50
2023-05-09T01:11:01.889Z,26.48
2023-05-09T01:11:31.801Z,26.47
2023-05-09T01:12:31.848Z,26.47
2023-05-09T01:13:01.996Z,26.47
2023-05-09T01:13:31.963Z,26.48
2023-05-09T01:14:01.991Z,26.47
2023-05-09T01:14:32.036Z,26.48
2023-05-09T01:15:02.111Z,26.47
2023-05-09T01:15:32.153Z,26.47
2023-05-09T01:16:02.214Z,26.46
2023-05-09T01:16:32.252Z,26.48
2023-05-09T01:17:02.290Z,26.47
2023-05-09T01:17:32.381Z,26.46
2023-05-09T01:18:02.443Z,26.47
2023-05-09T01:18:32.485Z,26.47
2023-05-09T01:19:02.549Z,26.46
2023-05-09T01:19:32.600Z,26.44
2023-05-09T01:20:02.644Z,26.48
2023-05-09T01:20:32.688Z,26.46
2023-05-09T01:21:02.723Z,26.47
2023-05-09T01:21:32.807Z,26.47
2023-05-09T01:22:02.926Z,26.47
2023-05-09T01:22:32.918Z,26.44
2023-05-09T01:23:03.001Z,26.46
2023-05-09T01:23:33.091Z,26.46
2023-05-09T01:24:03.184Z,26.47
2023-05-09T01:24:33.310Z,26.46
2023-05-09T01:25:03.281Z,26.44
2023-05-09T01:25:33.365Z,26.44
2023-05-09T01:26:03.565Z,26.44
2023-05-09T01:26:33.530Z,26.43
2023-05-09T01:27:33.560Z,26.46
2023-05-09T01:28:03.640Z,26.46
2023-05-09T01:28:33.729Z,26.43
2023-05-09T01:29:03.835Z,26.44
2023-05-09T01:29:33.918Z,26.46
2023-05-09T01:30:04.015Z,26.46
2023-05-09T01:30:34.094Z,26.44
2023-05-09T01:31:04.203Z,26.46
2023-05-09T01:31:34.297Z,26.44
2023-05-09T01:32:04.377Z,26.47
2023-05-09T01:32:34.503Z,26.47
2023-05-09T01:33:04.556Z,26.44
2023-05-09T01:33:34.541Z,26.46
2023-05-09T01:34:04.617Z,26.46
2023-05-09T01:34:34.720Z,26.44
2023-05-09T01:35:04.822Z,26.44
2023-05-09T01:35:34.924Z,26.43
2023-05-09T01:36:05.016Z,26.44
2023-05-09T01:36:35.092Z,26.44
2023-05-09T01:37:05.187Z,26.44
2023-05-09T01:37:35.275Z,26.44
2023-05-09T01:38:05.360Z,26.43
2023-05-09T01:38:35.439Z,26.46
2023-05-09T01:39:05.586Z,26.44
2023-05-09T01:39:35.644Z,26.44
2023-05-09T01:40:05.712Z,26.44
2023-05-09T01:40:35.806Z,26.46
2023-05-09T01:41:06.037Z,26.43
2023-05-09T01:41:35.979Z,26.43
2023-05-09T01:42:06.083Z,26.44
2023-05-09T01:42:36.165Z,26.46
2023-05-09T01:43:06.295Z,26.43
2023-05-09T01:43:36.376Z,26.42
2023-05-09T01:44:06.388Z,26.44
2023-05-09T01:44:36.354Z,26.43
2023-05-09T01:45:06.468Z,26.44
2023-05-09T01:45:36.450Z,26.40
2023-05-09T01:46:06.594Z,26.44
2023-05-09T01:46:36.621Z,26.44
2023-05-09T01:47:06.693Z,26.43
2023-05-09T01:47:36.829Z,26.42
2023-05-09T01:48:06.930Z,26.42
2023-05-09T01:48:36.905Z,26.40
2023-05-09T01:49:07.049Z,26.42
2023-05-09T01:49:37.043Z,26.42
2023-05-09T01:50:07.129Z,26.43
2023-05-09T01:50:37.215Z,26.42
2023-05-09T01:51:07.290Z,26.42
2023-05-09T01:51:37.292Z,26.44
2023-05-09T01:52:07.396Z,26.42
2023-05-09T01:52:37.495Z,26.43
2023-05-09T01:53:07.575Z,26.43
2023-05-09T01:53:37.654Z,26.42
2023-05-09T01:54:07.754Z,26.43
2023-05-09T01:54:37.829Z,26.42
2023-05-09T01:55:07.909Z,26.43
2023-05-09T01:55:37.994Z,26.42
2023-05-09T01:56:08.202Z,26.42
2023-05-09T01:56:38.154Z,26.42
2023-05-09T01:57:08.242Z,26.46
2023-05-09T01:57:38.311Z,26.40
2023-05-09T01:58:08.398Z,26.43
2023-05-09T01:58:38.490Z,26.42
2023-05-09T01:59:08.577Z,26.40
2023-05-09T01:59:38.661Z,26.42
2023-05-09T02:00:08.739Z,26.42
2023-05-09T02:00:38.876Z,26.40
2023-05-09T02:01:09.013Z,26.39
2023-05-09T02:01:38.962Z,26.43
2023-05-09T02:02:09.056Z,26.42
2023-05-09T02:02:39.242Z,26.40
2023-05-09T02:03:09.212Z,26.42
2023-05-09T02:03:39.181Z,26.40
2023-05-09T02:04:09.246Z,26.40
2023-05-09T02:04:39.332Z,26.39
2023-05-09T02:05:09.376Z,26.39
2023-05-09T02:05:39.473Z,26.40
2023-05-09T02:06:09.555Z,26.42
2023-05-09T02:06:39.655Z,26.40
2023-05-09T02:07:09.735Z,26.40
2023-05-09T02:07:39.821Z,26.42
2023-05-09T02:08:09.901Z,26.42
2023-05-09T02:08:39.980Z,26.40
2023-05-09T02:09:10.089Z,26.40
2023-05-09T02:09:40.180Z,26.40
2023-05-09T02:10:10.282Z,26.42
2023-05-09T02:10:40.369Z,26.39
2023-05-09T02:11:10.454Z,26.40
2023-05-09T02:11:40.665Z,26.39
2023-05-09T02:12:10.639Z,26.39
2023-05-09T02:12:40.780Z,26.39
2023-05-09T02:13:10.807Z,26.42
2023-05-09T02:13:40.765Z,26.40
2023-05-09T02:14:10.855Z,26.43
2023-05-09T02:14:40.956Z,26.40
2023-05-09T02:15:11.054Z,26.40
2023-05-09T02:15:41.131Z,26.40
2023-05-09T02:16:11.263Z,26.40
2023-05-09T02:16:41.257Z,26.40
2023-05-09T02:17:11.338Z,26.39
2023-05-09T02:17:41.456Z,26.42
2023-05-09T02:18:11.514Z,26.37
2023-05-09T02:18:41.637Z,26.39
2023-05-09T02:19:11.708Z,26.36
2023-05-09T02:19:41.808Z,26.39
2023-05-09T02:20:11.917Z,26.37
2023-05-09T02:20:41.890Z,26.37
2023-05-09T02:21:12.074Z,26.39
2023-05-09T02:21:42.011Z,26.37
2023-05-09T02:22:12.003Z,26.37
2023-05-09T02:22:42.032Z,26.39
2023-05-09T02:23:12.055Z,26.37
2023-05-09T02:23:42.045Z,26.37
2023-05-09T02:24:12.043Z,26.35
2023-05-09T02:24:42.057Z,26.39
2023-05-09T02:25:12.279Z,26.37
2023-05-09T02:25:42.070Z,26.35
2023-05-09T02:26:12.095Z,26.36
2023-05-09T02:26:42.244Z,26.39
2023-05-09T02:27:12.103Z,26.37
2023-05-09T02:28:12.209Z,26.37
2023-05-09T02:28:42.210Z,26.37
2023-05-09T02:29:12.236Z,26.36
2023-05-09T02:29:42.237Z,26.37
2023-05-09T02:30:12.257Z,26.37
2023-05-09T02:30:42.249Z,26.35
2023-05-09T02:31:12.250Z,26.36
2023-05-09T02:31:42.286Z,26.36
2023-05-09T02:32:12.407Z,26.39
2023-05-09T02:32:42.401Z,26.37
2023-05-09T02:33:12.431Z,26.37
2023-05-09T02:33:42.431Z,26.36
2023-05-09T02:34:12.442Z,26.37
2023-05-09T02:34:42.468Z,26.36
2023-05-09T02:35:12.620Z,26.36
2023-05-09T02:35:42.527Z,26.36
2023-05-09T02:36:12.525Z,26.35
2023-05-09T02:36:42.544Z,26.39
2023-05-09T02:37:12.545Z,26.39
2023-05-09T02:37:42.560Z,26.37
2023-05-09T02:38:12.585Z,26.37
2023-05-09T02:38:42.603Z,26.35
2023-05-09T02:39:12.620Z,26.37
2023-05-09T02:39:42.626Z,26.36
2023-05-09T02:40:12.639Z,26.37
2023-05-09T02:40:42.628Z,26.39
2023-05-09T02:41:12.632Z,26.36
2023-05-09T02:42:12.846Z,26.35
2023-05-09T02:42:42.842Z,26.36
2023-05-09T02:43:42.865Z,26.35
2023-05-09T02:44:12.856Z,26.35
2023-05-09T02:44:42.860Z,26.36
2023-05-09T02:45:13.160Z,26.35
2023-05-09T02:45:42.923Z,26.35
2023-05-09T02:46:12.962Z,26.33
2023-05-09T02:46:42.983Z,26.35
2023-05-09T02:47:12.997Z,26.32
2023-05-09T02:47:43.047Z,26.33
2023-05-09T02:48:13.171Z,26.36
2023-05-09T02:48:43.095Z,26.33
2023-05-09T02:49:22.801Z,26.35
2023-05-09T02:49:43.203Z,26.33
2023-05-09T02:50:13.208Z,26.33
2023-05-09T02:50:43.214Z,26.35
2023-05-09T02:51:13.328Z,26.33
2023-05-09T02:51:43.342Z,26.36
2023-05-09T02:52:13.353Z,26.35
2023-05-09T02:52:43.371Z,26.35
2023-05-09T02:53:13.392Z,26.35
2023-05-09T02:53:43.393Z,26.35
2023-05-09T02:54:13.399Z,26.35
2023-05-09T02:54:43.408Z,26.35
2023-05-09T02:55:13.665Z,26.33
2023-05-09T02:55:43.442Z,26.33
2023-05-09T02:56:13.458Z,26.30
2023-05-09T02:56:43.457Z,26.35
2023-05-09T02:57:13.487Z,26.33
2023-05-09T02:57:43.615Z,26.35
2023-05-09T02:58:15.006Z,26.32
2023-05-09T02:59:13.656Z,26.33
2023-05-09T02:59:43.664Z,26.32
2023-05-09T03:00:13.672Z,26.35
2023-05-09T03:00:43.698Z,26.32
2023-05-09T03:01:13.735Z,26.35
2023-05-09T03:01:43.768Z,26.33
2023-05-09T03:02:13.747Z,26.35
2023-05-09T03:02:43.914Z,26.33
2023-05-09T03:03:13.905Z,26.33
2023-05-09T03:03:44.169Z,26.33
2023-05-09T03:04:14.032Z,26.35
2023-05-09T03:04:44.149Z,26.35
2023-05-09T03:05:14.297Z,26.33
2023-05-09T03:05:44.176Z,26.33
2023-05-09T03:06:14.190Z,26.36
2023-05-09T03:06:44.194Z,26.33
2023-05-09T03:07:14.242Z,26.32
2023-05-09T03:07:44.251Z,26.32
2023-05-09T03:08:14.277Z,26.33
2023-05-09T03:08:44.270Z,26.35
2023-05-09T03:09:14.275Z,26.33
2023-05-09T03:09:44.287Z,26.32
2023-05-09T03:10:14.307Z,26.32
2023-05-09T03:10:44.331Z,26.33
2023-05-09T03:11:14.330Z,26.33
2023-05-09T03:11:44.429Z,26.32
2023-05-09T03:12:14.514Z,26.33
2023-05-09T03:12:44.622Z,26.32
2023-05-09T03:13:14.874Z,26.33
2023-05-09T03:13:44.752Z,26.33
2023-05-09T03:14:14.854Z,26.33
2023-05-09T03:14:44.922Z,26.32
2023-05-09T03:15:15.173Z,26.32
2023-05-09T03:15:45.092Z,26.35
2023-05-09T03:16:15.194Z,26.30
2023-05-09T03:16:45.162Z,26.32
2023-05-09T03:17:15.245Z,26.33
2023-05-09T03:17:45.405Z,26.30
2023-05-09T03:18:15.367Z,26.30
2023-05-09T03:18:45.481Z,26.32
2023-05-09T03:19:15.571Z,26.32
2023-05-09T03:19:45.685Z,26.32
2023-05-09T03:20:15.869Z,26.30
2023-05-09T03:20:45.832Z,26.30
2023-05-09T03:21:15.968Z,26.29
2023-05-09T03:21:45.978Z,26.30
2023-05-09T03:22:15.995Z,26.29
2023-05-09T03:22:45.997Z,26.30
2023-05-09T03:23:16.007Z,26.30
2023-05-09T03:23:46.014Z,26.30
2023-05-09T03:24:16.050Z,26.30
2023-05-09T03:24:46.033Z,26.32
2023-05-09T03:25:16.391Z,26.29
2023-05-09T03:25:46.216Z,26.32
2023-05-09T03:26:16.108Z,26.30
2023-05-09T03:27:16.211Z,26.30
2023-05-09T03:27:46.216Z,26.30
2023-05-09T03:28:16.232Z,26.29
2023-05-09T03:28:46.361Z,26.32
2023-05-09T03:29:16.349Z,26.32
2023-05-09T03:30:16.440Z,26.30
2023-05-09T03:30:46.446Z,26.30
2023-05-09T03:31:16.502Z,26.28
2023-05-09T03:31:46.605Z,26.32
2023-05-09T03:32:16.599Z,26.30
2023-05-09T03:32:46.641Z,26.29
2023-05-09T03:33:16.641Z,26.30
2023-05-09T03:33:46.656Z,26.32
2023-05-09T03:34:16.672Z,26.29
2023-05-09T03:34:46.677Z,26.29
2023-05-09T03:35:16.866Z,26.28
2023-05-09T03:35:46.757Z,26.30
2023-05-09T03:36:16.780Z,26.29
2023-05-09T03:36:46.785Z,26.32
2023-05-09T03:37:16.785Z,26.28
2023-05-09T03:37:46.799Z,26.30
2023-05-09T03:38:16.807Z,26.28
2023-05-09T03:38:46.805Z,26.29
2023-05-09T03:39:16.842Z,26.29
2023-05-09T03:39:46.821Z,26.28
2023-05-09T03:40:16.838Z,26.29
2023-05-09T03:40:46.833Z,26.25
2023-05-09T03:41:16.873Z,26.28
2023-05-09T03:41:46.864Z,26.26
2023-05-09T03:42:16.890Z,26.26
2023-05-09T03:42:46.886Z,26.26
2023-05-09T03:43:16.885Z,26.26
2023-05-09T03:43:46.903Z,26.29
2023-05-09T03:44:17.040Z,26.26
2023-05-09T03:44:47.014Z,26.25
2023-05-09T03:45:17.121Z,26.26
2023-05-09T03:45:47.041Z,26.28
2023-05-09T03:46:17.097Z,26.29
2023-05-09T03:46:47.184Z,26.29
2023-05-09T03:47:17.219Z,26.29
2023-05-09T03:47:47.287Z,26.30
2023-05-09T03:48:17.286Z,26.29
2023-05-09T03:48:47.303Z,26.28
2023-05-09T03:49:17.352Z,26.33
2023-05-09T03:49:47.367Z,26.33
2023-05-09T03:50:17.364Z,26.32
2023-05-09T03:50:47.395Z,26.35
2023-05-09T03:51:17.413Z,26.33
2023-05-09T03:51:47.432Z,26.36
2023-05-09T03:52:17.454Z,26.35
2023-05-09T03:52:47.454Z,26.36
2023-05-09T03:53:17.461Z,26.35
2023-05-09T03:53:47.476Z,26.39
2023-05-09T03:54:17.486Z,26.36
2023-05-09T03:54:47.500Z,26.40
2023-05-09T03:55:17.509Z,26.37
2023-05-09T03:55:47.523Z,26.36
2023-05-09T03:56:17.529Z,26.40
2023-05-09T03:56:47.537Z,26.40
2023-05-09T03:57:17.622Z,26.40
2023-05-09T03:57:47.622Z,26.39
2023-05-09T03:58:17.632Z,26.42
2023-05-09T03:58:47.666Z,26.40
2023-05-09T03:59:17.662Z,26.43
2023-05-09T03:59:47.788Z,26.39
2023-05-09T04:00:17.763Z,26.42
2023-05-09T04:00:47.887Z,26.43
2023-05-09T04:01:17.885Z,26.43
2023-05-09T04:01:47.939Z,26.42
2023-05-09T04:02:18.001Z,26.44
2023-05-09T04:02:48.040Z,26.43
2023-05-09T04:03:18.134Z,26.43
2023-05-09T04:03:48.185Z,26.44
2023-05-09T04:04:18.219Z,26.46
2023-05-09T04:04:48.221Z,26.43
2023-05-09T04:05:18.264Z,26.46
2023-05-09T04:05:48.264Z,26.47
2023-05-09T04:06:18.267Z,26.46
2023-05-09T04:06:48.281Z,26.47
2023-05-09T04:07:18.347Z,26.47
2023-05-09T04:07:48.364Z,26.51
2023-05-09T04:08:18.370Z,26.48
2023-05-09T04:08:48.369Z,26.47
2023-05-09T04:09:18.384Z,26.50
2023-05-09T04:09:48.383Z,26.51
2023-05-09T04:10:18.396Z,26.48
2023-05-09T04:10:48.400Z,26.50
2023-05-09T04:11:18.517Z,26.50
2023-05-09T04:11:48.610Z,26.50
2023-05-09T04:12:18.713Z,26.48
2023-05-09T04:12:48.855Z,26.48
2023-05-09T04:13:18.827Z,26.51
2023-05-09T04:13:48.901Z,26.47
2023-05-09T04:14:18.986Z,26.51
2023-05-09T04:14:49.261Z,26.51
2023-05-09T04:15:19.108Z,26.53
2023-05-09T04:16:19.296Z,26.51
2023-05-09T04:16:49.260Z,26.51
2023-05-09T04:17:19.262Z,26.53
2023-05-09T04:17:49.461Z,26.53
2023-05-09T04:18:19.340Z,26.56
2023-05-09T04:18:49.431Z,26.54
2023-05-09T04:19:19.552Z,26.56
2023-05-09T04:19:49.603Z,26.57
2023-05-09T04:20:19.679Z,26.56
2023-05-09T04:20:49.779Z,26.56
2023-05-09T04:21:19.779Z,26.56
2023-05-09T04:21:49.783Z,26.56
2023-05-09T04:22:19.782Z,26.57
2023-05-09T04:22:49.785Z,26.57
2023-05-09T04:23:19.795Z,26.57
2023-05-09T04:23:49.813Z,26.58
2023-05-09T04:24:19.820Z,26.57
2023-05-09T04:24:49.826Z,26.58
2023-05-09T04:25:19.830Z,26.57
2023-05-09T04:25:49.844Z,26.58
2023-05-09T04:26:19.870Z,26.58
2023-05-09T04:26:49.882Z,26.58
2023-05-09T04:27:19.886Z,26.57
2023-05-09T04:27:49.905Z,26.56
2023-05-09T04:28:19.917Z,26.57
2023-05-09T04:28:49.923Z,26.54
2023-05-09T04:29:19.930Z,26.57
2023-05-09T04:29:49.940Z,26.57
2023-05-09T04:30:20.076Z,26.58
2023-05-09T04:30:50.019Z,26.60
2023-05-09T04:31:50.220Z,26.64
2023-05-09T04:32:20.107Z,26.60
2023-05-09T04:32:50.144Z,26.64
2023-05-09T04:33:20.136Z,26.64
2023-05-09T04:33:50.142Z,26.63
2023-05-09T04:34:20.143Z,26.65
2023-05-09T04:34:50.146Z,26.67
2023-05-09T04:35:20.873Z,26.65
2023-05-09T04:35:50.254Z,26.65
2023-05-09T04:36:20.368Z,26.64
2023-05-09T04:36:50.375Z,26.64
2023-05-09T04:37:20.383Z,26.65
2023-05-09T04:37:50.400Z,26.63
2023-05-09T04:38:20.408Z,26.64
2023-05-09T04:38:50.407Z,26.64
2023-05-09T04:39:20.408Z,26.63
2023-05-09T04:39:50.423Z,26.60
2023-05-09T04:40:20.469Z,26.60
2023-05-09T04:40:50.478Z,26.58
2023-05-09T04:41:20.490Z,26.56
2023-05-09T04:41:50.498Z,26.58
2023-05-09T04:42:20.501Z,26.56
2023-05-09T04:42:50.526Z,26.58
2023-05-09T04:43:20.540Z,26.57
2023-05-09T04:43:50.541Z,26.58
2023-05-09T04:44:20.558Z,26.58
2023-05-09T04:44:50.588Z,26.60
2023-05-09T04:45:20.646Z,26.54
2023-05-09T04:45:50.791Z,26.54
2023-05-09T04:46:20.861Z,26.54
2023-05-09T04:46:50.763Z,26.50
2023-05-09T04:47:20.764Z,26.53
2023-05-09T04:47:50.790Z,26.54
2023-05-09T04:48:20.792Z,26.53
2023-05-09T04:48:50.797Z,26.54
2023-05-09T04:49:20.839Z,26.53
2023-05-09T04:49:50.841Z,26.57
2023-05-09T04:50:20.861Z,26.57
2023-05-09T04:50:50.887Z,26.58
2023-05-09T04:51:20.879Z,26.57
2023-05-09T04:51:50.889Z,26.58
2023-05-09T04:52:20.892Z,26.60
2023-05-09T04:52:50.902Z,26.60
2023-05-09T04:53:20.912Z,26.58
2023-05-09T04:53:50.925Z,26.57
2023-05-09T04:54:20.928Z,26.58
2023-05-09T04:54:50.935Z,26.57
2023-05-09T04:55:20.953Z,26.57
2023-05-09T04:55:50.958Z,26.58
2023-05-09T04:56:20.981Z,26.57
2023-05-09T04:56:51.001Z,26.54
2023-05-09T04:57:21.000Z,26.58
2023-05-09T04:57:51.023Z,26.58
2023-05-09T04:58:21.035Z,26.58
2023-05-09T04:58:51.041Z,26.61
2023-05-09T04:59:21.062Z,26.60
2023-05-09T04:59:51.109Z,26.61
2023-05-09T05:00:21.121Z,26.61
2023-05-09T05:00:51.120Z,26.61
2023-05-09T05:01:21.168Z,26.67
2023-05-09T05:01:51.246Z,26.68
2023-05-09T05:02:21.365Z,26.70
2023-05-09T05:02:51.303Z,26.73
2023-05-09T05:03:21.358Z,26.71
2023-05-09T05:03:51.395Z,26.71
2023-05-09T05:04:21.467Z,26.75
2023-05-09T05:04:52.917Z,26.74
2023-05-09T05:05:25.010Z,26.73
2023-05-09T05:05:51.658Z,26.74
2023-05-09T05:06:21.732Z,26.71
2023-05-09T05:06:51.732Z,26.68
2023-05-09T05:07:21.740Z,26.67
2023-05-09T05:08:21.889Z,26.64
2023-05-09T05:08:51.890Z,26.63
2023-05-09T05:09:21.901Z,26.63
2023-05-09T05:09:51.912Z,26.61
2023-05-09T05:10:21.939Z,26.58
2023-05-09T05:10:51.940Z,26.54
2023-05-09T05:11:21.942Z,26.56
2023-05-09T05:11:59.957Z,26.57
2023-05-09T05:12:22.118Z,26.56
2023-05-09T05:12:52.258Z,26.54
2023-05-09T05:13:22.340Z,26.56
2023-05-09T05:13:52.255Z,26.48
2023-05-09T05:14:22.360Z,26.48
2023-05-09T05:14:52.458Z,26.47
2023-05-09T05:15:22.531Z,26.46
2023-05-09T05:15:52.687Z,26.42
2023-05-09T05:16:22.727Z,26.42
2023-05-09T05:16:52.828Z,26.39
2023-05-09T05:17:22.804Z,26.37
2023-05-09T05:17:52.920Z,26.36
2023-05-09T05:18:22.887Z,26.33
2023-05-09T05:18:52.978Z,26.30
2023-05-09T05:19:23.063Z,26.32
2023-05-09T05:19:53.149Z,26.29
2023-05-09T05:20:23.229Z,26.28
2023-05-09T05:20:53.322Z,26.25
2023-05-09T05:21:23.314Z,26.23
2023-05-09T05:21:53.321Z,26.23
2023-05-09T05:22:23.339Z,26.22
2023-05-09T05:22:53.358Z,26.22
2023-05-09T05:23:23.360Z,26.18
2023-05-09T05:23:53.387Z,26.19
2023-05-09T05:24:23.392Z,26.18
2023-05-09T05:24:53.418Z,26.16
2023-05-09T05:25:23.414Z,26.15
2023-05-09T05:25:53.425Z,26.12
2023-05-09T05:26:23.507Z,26.11
2023-05-09T05:26:53.523Z,26.12
2023-05-09T05:27:23.529Z,26.11
2023-05-09T05:27:53.534Z,26.09
2023-05-09T05:28:23.540Z,26.12
2023-05-09T05:28:53.548Z,26.11
2023-05-09T05:29:23.543Z,26.12
2023-05-09T05:29:53.567Z,26.09
2023-05-09T05:30:23.556Z,26.09
2023-05-09T05:30:53.577Z,26.08
2023-05-09T05:31:23.601Z,26.06
2023-05-09T05:31:53.715Z,26.08
2023-05-09T05:32:23.805Z,26.08
2023-05-09T05:32:53.672Z,26.08
2023-05-09T05:33:53.764Z,26.08
2023-05-09T05:34:23.762Z,26.05
2023-05-09T05:34:53.773Z,26.08
2023-05-09T05:35:23.783Z,26.06
2023-05-09T05:35:53.805Z,26.06
2023-05-09T05:36:23.829Z,26.11
2023-05-09T05:36:53.831Z,26.09
2023-05-09T05:37:23.835Z,26.11
2023-05-09T05:37:53.843Z,26.08
2023-05-09T05:38:23.856Z,26.08
2023-05-09T05:38:53.865Z,26.11
2023-05-09T05:39:23.877Z,26.06
2023-05-09T05:39:53.876Z,26.11
2023-05-09T05:40:23.908Z,26.12
2023-05-09T05:40:53.915Z,26.12
2023-05-09T05:41:23.922Z,26.15
2023-05-09T05:41:53.928Z,26.18
2023-05-09T05:42:23.944Z,26.19
2023-05-09T05:42:53.946Z,26.19
2023-05-09T05:43:23.956Z,26.19
2023-05-09T05:43:54.603Z,26.22
2023-05-09T05:44:24.068Z,26.22
2023-05-09T05:44:54.091Z,26.23
2023-05-09T05:45:24.109Z,26.22
2023-05-09T05:45:54.138Z,26.28
2023-05-09T05:46:24.156Z,26.29
2023-05-09T05:46:54.170Z,26.29
2023-05-09T05:47:24.173Z,26.32
2023-05-09T05:47:54.502Z,26.29
2023-05-09T05:48:24.338Z,26.30
2023-05-09T05:49:24.412Z,26.32
2023-05-09T05:49:54.432Z,26.32
2023-05-09T05:50:24.434Z,26.32
2023-05-09T05:50:54.473Z,26.35
2023-05-09T05:51:24.460Z,26.35
2023-05-09T05:51:54.469Z,26.36
2023-05-09T05:52:24.479Z,26.33
2023-05-09T05:52:54.488Z,26.30
2023-05-09T05:53:24.511Z,26.29
2023-05-09T05:53:54.516Z,26.32
2023-05-09T05:54:24.543Z,26.33
2023-05-09T05:54:54.553Z,26.33
2023-05-09T05:55:24.569Z,26.29
2023-05-09T05:55:54.561Z,26.30
2023-05-09T05:56:24.577Z,26.32
2023-05-09T05:56:54.585Z,26.33
2023-05-09T05:57:24.585Z,26.33
2023-05-09T05:57:54.617Z,26.35
2023-05-09T05:58:24.635Z,26.36
2023-05-09T05:58:54.643Z,26.39
2023-05-09T05:59:24.670Z,26.39
2023-05-09T05:59:54.671Z,26.40
2023-05-09T06:00:24.680Z,26.42
2023-05-09T06:00:54.682Z,26.47
2023-05-09T06:01:24.707Z,26.46
2023-05-09T06:01:54.723Z,26.46
2023-05-09T06:02:54.963Z,26.44
2023-05-09T06:03:25.059Z,26.46
2023-05-09T06:03:55.049Z,26.47
2023-05-09T06:04:56.155Z,26.50
2023-05-09T06:05:25.084Z,26.48
2023-05-09T06:05:55.094Z,26.50
2023-05-09T06:06:25.119Z,26.51
2023-05-09T06:06:55.140Z,26.53
2023-05-09T06:07:25.163Z,26.50
2023-05-09T06:07:55.176Z,26.50
2023-05-09T06:08:25.201Z,26.51
2023-05-09T06:08:55.214Z,26.53
2023-05-09T06:09:25.218Z,26.53
2023-05-09T06:09:55.246Z,26.50
2023-05-09T06:10:25.258Z,26.50
2023-05-09T06:10:55.272Z,26.50
2023-05-09T06:11:25.373Z,26.50
2023-05-09T06:11:55.370Z,26.53
2023-05-09T06:12:27.344Z,26.53
2023-05-09T06:12:55.553Z,26.56
2023-05-09T06:13:25.614Z,26.56
2023-05-09T06:13:55.551Z,26.53
2023-05-09T06:14:25.636Z,26.54
2023-05-09T06:14:55.738Z,26.54
2023-05-09T06:15:25.811Z,26.56
2023-05-09T06:15:57.748Z,26.54
2023-05-09T06:16:25.992Z,26.54
2023-05-09T06:16:56.150Z,26.56
2023-05-09T06:17:26.144Z,26.57
2023-05-09T06:17:56.212Z,26.56
2023-05-09T06:18:26.226Z,26.57
2023-05-09T06:18:56.473Z,26.56
2023-05-09T06:19:26.317Z,26.60
2023-05-09T06:20:26.469Z,26.60
2023-05-09T06:20:56.548Z,26.60
2023-05-09T06:21:26.680Z,26.60
2023-05-09T06:21:56.669Z,26.60
2023-05-09T06:22:26.671Z,26.58
2023-05-09T06:22:56.727Z,26.61
2023-05-09T06:23:26.722Z,26.63
2023-05-09T06:24:35.649Z,26.64
2023-05-09T06:24:56.846Z,26.63
2023-05-09T06:25:26.851Z,26.64
2023-05-09T06:25:56.869Z,26.65
2023-05-09T06:26:26.896Z,26.68
2023-05-09T06:26:56.945Z,26.65
2023-05-09T06:27:26.976Z,26.65
2023-05-09T06:27:56.983Z,26.65
2023-05-09T06:28:27.007Z,26.64
2023-05-09T06:28:57.008Z,26.65
2023-05-09T06:29:27.029Z,26.67
2023-05-09T06:29:57.029Z,26.67
2023-05-09T06:30:27.339Z,26.70
2023-05-09T06:30:57.153Z,26.70
2023-05-09T06:31:27.202Z,26.73
2023-05-09T06:31:57.252Z,26.68
2023-05-09T06:32:27.297Z,26.68
2023-05-09T06:32:57.395Z,26.67
2023-05-09T06:33:27.412Z,26.67
2023-05-09T06:33:57.418Z,26.65
2023-05-09T06:34:27.557Z,26.70
2023-05-09T06:34:57.432Z,26.68
2023-05-09T06:35:57.520Z,26.70
2023-05-09T06:36:27.549Z,26.70